createdAt,value
2022-09-18T00:01:11.675Z,5.47
2022-09-18T00:03:40.161Z,5.10
2022-09-18T00:06:09.287Z,5.82
2022-09-18T00:08:35.980Z,4.70
2022-09-18T00:11:06.215Z,4.78
2022-09-18T00:13:35.039Z,6.68
2022-09-18T00:16:02.081Z,6.72
2022-09-18T00:18:28.726Z,5.97
2022-09-18T00:20:55.459Z,6.00
2022-09-18T00:23:22.078Z,6.50
2022-09-18T00:25:48.690Z,8.00
2022-09-18T00:28:15.403Z,7.80
2022-09-18T00:30:42.018Z,10.23
2022-09-18T00:33:08.705Z,6.55
2022-09-18T00:35:35.344Z,5.97
2022-09-18T00:38:02.042Z,11.32
2022-09-18T00:40:28.753Z,10.15
2022-09-18T00:42:55.471Z,8.68
2022-09-18T00:45:22.282Z,12.88
2022-09-18T00:47:50.750Z,10.00
2022-09-18T00:50:22.043Z,11.57
2022-09-18T00:52:58.499Z,8.68
2022-09-18T00:55:32.517Z,10.95
2022-09-18T00:58:01.693Z,7.50
2022-09-18T01:00:29.716Z,10.23
2022-09-18T01:02:56.672Z,7.78
2022-09-18T01:05:52.683Z,11.32
2022-09-18T01:08:36.410Z,9.48
2022-09-18T01:11:17.407Z,8.63
2022-09-18T01:14:05.963Z,5.78
2022-09-18T01:16:39.800Z,5.72
2022-09-18T01:19:25.348Z,5.25
2022-09-18T01:24:58.307Z,9.05
2022-09-18T01:27:36.171Z,7.47
2022-09-18T01:30:06.962Z,5.63
2022-09-18T01:32:42.052Z,6.43
2022-09-18T01:38:07.932Z,4.75
2022-09-18T01:40:40.904Z,5.80
2022-09-18T01:43:11.340Z,4.38
2022-09-18T01:45:44.545Z,5.93
2022-09-18T01:48:17.804Z,9.90
2022-09-18T01:50:49.766Z,7.57
2022-09-18T01:53:27.327Z,4.65
2022-09-18T01:55:58.845Z,4.75
2022-09-18T01:58:27.769Z,5.20
2022-09-18T02:00:58.673Z,3.38
2022-09-18T02:03:29.838Z,4.32
2022-09-18T02:06:00.892Z,3.45
2022-09-18T02:08:55.908Z,5.32
2022-09-18T02:11:23.523Z,4.40
2022-09-18T02:13:55.011Z,4.32
2022-09-18T02:16:46.181Z,5.20
2022-09-18T02:19:22.805Z,9.07
2022-09-18T02:21:52.578Z,4.88
2022-09-18T02:24:22.986Z,6.50
2022-09-18T02:26:54.615Z,4.78
2022-09-18T02:29:24.346Z,5.70
2022-09-18T02:31:52.230Z,8.18
2022-09-18T02:34:20.242Z,5.00
2022-09-18T02:37:19.378Z,7.10
2022-09-18T02:40:15.361Z,4.63
2022-09-18T02:43:17.268Z,4.70
2022-09-18T02:45:54.203Z,4.57
2022-09-18T02:48:39.425Z,5.03
2022-09-18T02:51:15.493Z,4.78
2022-09-18T02:54:00.307Z,4.60
2022-09-18T02:56:45.087Z,5.00
2022-09-18T02:59:20.872Z,4.90
2022-09-18T03:01:48.523Z,6.10
2022-09-18T03:04:21.444Z,16.58
2022-09-18T03:06:48.104Z,4.50
2022-09-18T03:09:16.230Z,10.63
2022-09-18T03:11:43.033Z,15.57
2022-09-18T03:14:09.695Z,10.85
2022-09-18T03:16:36.448Z,8.40
2022-09-18T03:19:04.387Z,5.55
2022-09-18T03:21:32.485Z,5.78
2022-09-18T03:23:59.271Z,4.03
2022-09-18T03:26:25.945Z,4.25
2022-09-18T03:28:52.561Z,6.18
2022-09-18T03:31:19.426Z,7.30
2022-09-18T03:33:46.285Z,8.77
2022-09-18T03:36:12.963Z,5.43
2022-09-18T03:38:40.961Z,8.98
2022-09-18T03:41:07.578Z,5.05
2022-09-18T03:43:34.691Z,7.97
2022-09-18T03:46:01.600Z,8.45
2022-09-18T03:48:28.776Z,8.23
2022-09-18T03:50:55.523Z,4.80
2022-09-18T03:53:22.154Z,6.60
2022-09-18T03:55:52.072Z,3.92
2022-09-18T03:58:18.973Z,6.80
2022-09-18T04:00:46.707Z,9.07
2022-09-18T04:03:13.505Z,7.00
2022-09-18T04:05:40.499Z,9.48
2022-09-18T04:08:07.175Z,10.52
2022-09-18T04:10:33.873Z,6.82
2022-09-18T04:13:00.844Z,11.63
2022-09-18T04:15:27.450Z,9.60
2022-09-18T04:17:54.121Z,6.50
2022-09-18T04:20:20.899Z,11.50
2022-09-18T04:22:47.535Z,8.80
2022-09-18T04:25:14.435Z,8.30
2022-09-18T04:27:41.064Z,6.55
2022-09-18T04:30:08.550Z,4.15
2022-09-18T04:32:35.196Z,6.72
2022-09-18T04:35:01.875Z,6.38
2022-09-18T04:37:28.492Z,6.10
2022-09-18T04:39:55.191Z,5.03
2022-09-18T04:42:21.871Z,5.68
2022-09-18T04:44:48.566Z,4.95
2022-09-18T04:47:15.190Z,5.90
2022-09-18T04:49:41.888Z,5.45
2022-09-18T04:52:08.533Z,5.22
2022-09-18T04:54:35.191Z,9.95
2022-09-18T04:57:01.904Z,6.53
2022-09-18T04:59:28.516Z,11.60
2022-09-18T05:01:55.281Z,17.92
2022-09-18T05:04:21.952Z,6.47
2022-09-18T05:06:48.795Z,6.82
2022-09-18T05:09:15.557Z,11.20
2022-09-18T05:11:42.236Z,5.72
2022-09-18T05:14:08.928Z,8.35
2022-09-18T05:16:35.798Z,5.10
2022-09-18T05:19:02.667Z,4.75
2022-09-18T05:21:29.636Z,4.00
2022-09-18T05:23:56.498Z,4.93
2022-09-18T05:26:23.244Z,5.97
2022-09-18T05:28:50.619Z,7.72
2022-09-18T05:31:17.746Z,11.68
2022-09-18T05:33:44.568Z,7.05
2022-09-18T05:36:11.266Z,7.72
2022-09-18T05:38:37.898Z,7.13
2022-09-18T05:41:04.938Z,6.50
2022-09-18T05:43:31.584Z,6.30
2022-09-18T05:46:01.155Z,6.03
2022-09-18T05:48:28.172Z,6.03
2022-09-18T05:50:54.864Z,5.18
2022-09-18T05:53:22.058Z,5.00
2022-09-18T05:55:48.976Z,5.18
2022-09-18T05:58:18.093Z,5.20
2022-09-18T06:00:45.946Z,5.07
2022-09-18T06:03:15.034Z,5.95
2022-09-18T06:05:42.880Z,5.90
2022-09-18T06:08:12.537Z,5.13
2022-09-18T06:10:40.848Z,5.10
2022-09-18T06:13:14.052Z,5.88
2022-09-18T06:15:41.071Z,5.28
2022-09-18T06:18:10.528Z,4.80
2022-09-18T06:20:37.212Z,5.20
2022-09-18T06:23:04.183Z,4.82
2022-09-18T06:25:31.251Z,4.55
2022-09-18T06:28:00.148Z,4.95
2022-09-18T06:30:31.778Z,4.05
2022-09-18T06:33:04.782Z,4.95
2022-09-18T06:35:33.623Z,4.28
2022-09-18T06:38:04.705Z,3.03
2022-09-18T06:40:32.600Z,2.75
2022-09-18T06:43:01.828Z,3.05
2022-09-18T06:45:29.894Z,3.72
2022-09-18T06:48:01.662Z,3.60
2022-09-18T06:50:28.295Z,3.00
2022-09-18T06:52:55.016Z,4.03
2022-09-18T06:55:21.799Z,3.95
2022-09-18T06:57:55.935Z,4.47
2022-09-18T07:00:22.944Z,3.22
2022-09-18T07:03:00.775Z,3.55
2022-09-18T07:05:29.195Z,3.58
2022-09-18T07:07:56.055Z,3.40
2022-09-18T07:10:23.655Z,3.03
2022-09-18T07:12:55.796Z,3.55
2022-09-18T07:15:22.847Z,4.30
2022-09-18T07:17:49.481Z,3.60
2022-09-18T07:20:16.255Z,3.45
2022-09-18T07:22:47.219Z,3.88
2022-09-18T07:25:14.364Z,4.32
2022-09-18T07:27:40.977Z,7.15
2022-09-18T07:30:08.680Z,9.27
2022-09-18T07:32:36.000Z,9.75
2022-09-18T07:35:03.502Z,9.77
2022-09-18T07:37:31.089Z,5.63
2022-09-18T07:39:57.974Z,3.95
2022-09-18T07:42:24.951Z,5.15
2022-09-18T07:44:51.569Z,3.67
2022-09-18T07:47:18.305Z,2.78
2022-09-18T07:49:44.960Z,3.08
2022-09-18T07:52:11.811Z,2.20
2022-09-18T07:54:39.035Z,2.20
2022-09-18T07:57:05.731Z,2.30
2022-09-18T07:59:32.942Z,2.20
2022-09-18T08:01:59.606Z,1.48
2022-09-18T08:04:26.430Z,1.77
2022-09-18T08:06:55.016Z,2.08
2022-09-18T08:09:22.276Z,1.60
2022-09-18T08:11:52.358Z,1.70
2022-09-18T08:14:19.041Z,1.80
2022-09-18T08:16:45.957Z,2.00
2022-09-18T08:19:13.060Z,1.88
2022-09-18T08:21:39.759Z,2.08
2022-09-18T08:24:06.520Z,1.67
2022-09-18T08:26:35.997Z,1.60
2022-09-18T08:29:02.632Z,1.50
2022-09-18T08:31:29.441Z,1.65
2022-09-18T08:33:56.078Z,1.35
2022-09-18T08:36:22.727Z,1.25
2022-09-18T08:38:52.282Z,1.40
2022-09-18T08:41:55.605Z,1.23
2022-09-18T08:44:44.648Z,1.45
2022-09-18T08:47:17.460Z,1.73
2022-09-18T08:50:06.041Z,1.50
2022-09-18T08:52:38.191Z,1.60
2022-09-18T08:55:21.211Z,1.48
2022-09-18T08:57:51.172Z,1.58
2022-09-18T09:00:26.884Z,1.20
2022-09-18T09:03:00.114Z,1.38
2022-09-18T09:05:35.448Z,1.35
2022-09-18T09:08:29.885Z,1.70
2022-09-18T09:11:30.260Z,1.63
2022-09-18T09:14:52.752Z,1.95
2022-09-18T09:17:25.847Z,1.77
2022-09-18T09:20:26.131Z,1.45
2022-09-18T09:23:05.946Z,1.50
2022-09-18T09:25:52.151Z,1.80
2022-09-18T09:28:25.131Z,2.15
2022-09-18T09:30:57.331Z,1.25
2022-09-18T09:33:31.244Z,1.30
2022-09-18T09:36:07.078Z,1.87
2022-09-18T09:38:52.466Z,1.80
2022-09-18T09:41:31.696Z,1.48
2022-09-18T09:44:23.679Z,1.50
2022-09-18T09:47:21.637Z,1.40
2022-09-18T09:50:04.070Z,1.58
2022-09-18T09:52:31.740Z,1.60
2022-09-18T09:55:16.904Z,1.75
2022-09-18T09:58:04.198Z,2.10
2022-09-18T10:00:48.792Z,1.60
2022-09-18T10:03:38.566Z,2.30
2022-09-18T10:06:27.220Z,2.60
2022-09-18T10:09:02.754Z,2.63
2022-09-18T10:11:31.011Z,4.50
2022-09-18T10:14:09.696Z,2.20
2022-09-18T10:16:45.598Z,1.60
2022-09-18T10:19:16.279Z,2.03
2022-09-18T10:21:43.426Z,2.38
2022-09-18T10:24:16.154Z,2.10
2022-09-18T10:26:57.396Z,1.88
2022-09-18T10:29:24.435Z,1.80
2022-09-18T10:31:53.703Z,2.10
2022-09-18T10:34:42.633Z,2.03
2022-09-18T10:37:30.184Z,1.50
2022-09-18T10:39:59.991Z,2.17
2022-09-18T10:42:32.630Z,2.40
2022-09-18T10:45:03.587Z,1.90
2022-09-18T10:47:33.342Z,2.55
2022-09-18T10:50:06.400Z,1.67
2022-09-18T10:52:37.923Z,2.15
2022-09-18T10:55:07.942Z,2.10
2022-09-18T10:57:46.616Z,1.83
2022-09-18T11:00:13.797Z,2.03
2022-09-18T11:03:21.221Z,1.85
2022-09-18T11:05:59.959Z,1.60
2022-09-18T11:08:31.230Z,2.08
2022-09-18T11:11:13.063Z,2.28
2022-09-18T11:13:49.681Z,1.92
2022-09-18T11:16:30.329Z,2.30
2022-09-18T11:19:18.604Z,1.98
2022-09-18T11:21:56.206Z,1.83
2022-09-18T11:24:33.668Z,1.95
2022-09-18T11:27:02.757Z,2.35
2022-09-18T11:29:34.471Z,2.28
2022-09-18T11:32:26.240Z,1.85
2022-09-18T11:34:55.446Z,2.50
2022-09-18T11:37:28.304Z,2.03
2022-09-18T11:40:01.377Z,1.63
2022-09-18T11:42:29.308Z,2.15
2022-09-18T11:45:09.695Z,1.92
2022-09-18T11:47:38.701Z,2.30
2022-09-18T11:50:19.464Z,2.20
2022-09-18T11:52:54.409Z,2.10
2022-09-18T11:58:10.802Z,2.08
2022-09-18T12:00:46.425Z,1.55
2022-09-18T12:03:27.863Z,2.08
2022-09-18T12:06:07.189Z,2.10
2022-09-18T12:08:39.135Z,1.88
2022-09-18T12:11:15.419Z,2.10
2022-09-18T12:14:00.280Z,2.03
2022-09-18T12:16:51.765Z,1.80
2022-09-18T12:19:24.294Z,1.92
2022-09-18T12:22:05.215Z,2.40
2022-09-18T12:24:31.918Z,2.00
2022-09-18T12:27:31.756Z,1.95
2022-09-18T12:29:58.390Z,1.80
2022-09-18T12:32:25.071Z,2.30
2022-09-18T12:35:16.797Z,2.08
2022-09-18T12:38:00.366Z,1.85
2022-09-18T12:40:51.072Z,2.20
2022-09-18T12:43:42.762Z,2.10
2022-09-18T12:46:26.826Z,1.95
2022-09-18T12:49:31.290Z,2.10
2022-09-18T12:52:31.781Z,2.10
2022-09-18T12:55:05.941Z,2.00
2022-09-18T12:57:41.942Z,1.95
2022-09-18T13:00:11.815Z,2.20
2022-09-18T13:02:53.697Z,2.55
2022-09-18T13:05:28.920Z,2.38
2022-09-18T13:08:05.239Z,2.00
2022-09-18T13:10:49.238Z,3.47
2022-09-18T13:13:43.349Z,2.00
2022-09-18T13:16:37.611Z,1.70
2022-09-18T13:19:18.070Z,1.83
2022-09-18T13:21:46.198Z,1.70
2022-09-18T13:24:16.794Z,2.13
2022-09-18T13:26:47.617Z,1.85
2022-09-18T13:29:56.568Z,1.83
2022-09-18T13:32:39.577Z,2.15
2022-09-18T13:35:12.361Z,1.70
2022-09-18T13:37:39.997Z,1.75
2022-09-18T13:40:37.206Z,2.00
2022-09-18T13:43:37.763Z,2.20
2022-09-18T13:46:07.366Z,1.92
2022-09-18T13:48:40.163Z,1.77
2022-09-18T13:51:18.847Z,1.97
2022-09-18T13:53:45.829Z,1.60
2022-09-18T13:56:17.482Z,1.83
2022-09-18T13:58:56.031Z,2.05
2022-09-18T14:01:41.212Z,2.00
2022-09-18T14:04:43.604Z,2.33
2022-09-18T14:07:17.013Z,1.70
2022-09-18T14:10:04.023Z,1.77
2022-09-18T14:12:34.592Z,2.05
2022-09-18T14:15:26.655Z,1.70
2022-09-18T14:18:15.466Z,1.65
2022-09-18T14:20:48.626Z,1.17
2022-09-18T14:23:34.262Z,1.52
2022-09-18T14:26:03.078Z,1.25
2022-09-18T14:28:29.946Z,1.50
2022-09-18T14:31:14.722Z,1.65
2022-09-18T14:33:43.538Z,1.73
2022-09-18T14:36:14.637Z,2.15
2022-09-18T14:38:41.903Z,1.45
2022-09-18T14:41:24.838Z,1.30
2022-09-18T14:44:04.110Z,1.30
2022-09-18T14:46:32.699Z,1.50
2022-09-18T14:49:02.015Z,1.30
2022-09-18T14:51:40.632Z,1.23
2022-09-18T14:54:22.729Z,1.35
2022-09-18T14:56:51.615Z,1.50
2022-09-18T14:59:20.977Z,1.20
2022-09-18T15:01:48.122Z,1.08
2022-09-18T15:04:22.639Z,1.25
2022-09-18T15:06:53.540Z,1.48
2022-09-18T15:09:25.899Z,1.45
2022-09-18T15:12:02.187Z,1.15
2022-09-18T15:14:44.115Z,1.55
2022-09-18T15:17:21.241Z,1.50
2022-09-18T15:19:59.333Z,1.40
2022-09-18T15:22:27.167Z,1.27
2022-09-18T15:24:53.973Z,3.25
2022-09-18T15:27:23.091Z,1.45
2022-09-18T15:30:00.356Z,4.25
2022-09-18T15:32:34.360Z,1.30
2022-09-18T15:35:05.327Z,1.70
2022-09-18T15:37:32.774Z,1.70
2022-09-18T15:40:05.358Z,1.58
2022-09-18T15:42:32.052Z,3.08
2022-09-18T15:45:01.439Z,1.55
2022-09-18T15:47:38.478Z,2.13
2022-09-18T15:50:15.357Z,1.48
2022-09-18T15:53:04.033Z,1.90
2022-09-18T15:55:33.723Z,1.40
2022-09-18T15:58:07.114Z,1.38
2022-09-18T16:00:36.990Z,1.75
2022-09-18T16:03:07.870Z,1.60
2022-09-18T16:05:38.031Z,1.90
2022-09-18T16:08:16.588Z,1.60
2022-09-18T16:10:44.297Z,1.35
2022-09-18T16:13:10.858Z,3.35
2022-09-18T16:15:38.191Z,2.15
2022-09-18T16:18:17.283Z,2.15
2022-09-18T16:20:51.019Z,2.10
2022-09-18T16:23:37.163Z,1.80
2022-09-18T16:26:11.554Z,1.70
2022-09-18T16:28:44.129Z,2.35
2022-09-18T16:31:13.538Z,1.90
2022-09-18T16:34:01.978Z,2.35
2022-09-18T16:36:35.985Z,1.48
2022-09-18T16:39:08.728Z,1.93
2022-09-18T16:41:35.867Z,1.60
2022-09-18T16:44:04.402Z,1.73
2022-09-18T16:46:40.588Z,1.77
2022-09-18T16:49:07.277Z,1.60
2022-09-18T16:51:33.911Z,1.90
2022-09-18T16:54:00.856Z,1.58
2022-09-18T16:56:31.873Z,1.50
2022-09-18T16:59:00.522Z,1.58
2022-09-18T17:01:36.221Z,2.85
2022-09-18T17:04:10.491Z,2.42
2022-09-18T17:06:37.328Z,2.00
2022-09-18T17:09:04.155Z,1.80
2022-09-18T17:11:30.797Z,2.17
2022-09-18T17:13:57.400Z,2.13
2022-09-18T17:16:43.588Z,2.90
2022-09-18T17:19:13.911Z,3.10
2022-09-18T17:21:41.599Z,2.47
2022-09-18T17:24:09.755Z,2.85
2022-09-18T17:26:37.376Z,3.97
2022-09-18T17:29:04.586Z,2.60
2022-09-18T17:31:31.379Z,3.63
2022-09-18T17:33:58.213Z,2.40
2022-09-18T17:36:25.064Z,2.20
2022-09-18T17:38:52.030Z,2.60
2022-09-18T17:41:19.690Z,2.40
2022-09-18T17:43:51.880Z,2.10
2022-09-18T17:46:24.309Z,2.60
2022-09-18T17:48:59.622Z,2.78
2022-09-18T17:51:28.637Z,3.38
2022-09-18T17:54:04.209Z,3.88
2022-09-18T17:56:31.810Z,4.20
2022-09-18T17:59:05.609Z,2.95
2022-09-18T18:01:36.322Z,3.92
2022-09-18T18:04:04.664Z,2.63
2022-09-18T18:06:32.152Z,2.75
2022-09-18T18:08:59.162Z,3.70
2022-09-18T18:11:26.089Z,3.08
2022-09-18T18:13:54.538Z,3.90
2022-09-18T18:16:27.471Z,2.80
2022-09-18T18:18:56.751Z,3.35
2022-09-18T18:21:23.961Z,3.03
2022-09-18T18:24:03.551Z,3.03
2022-09-18T18:26:31.077Z,3.17
2022-09-18T18:28:58.529Z,2.65
2022-09-18T18:31:25.921Z,2.95
2022-09-18T18:33:54.621Z,4.00
2022-09-18T18:36:25.025Z,4.32
2022-09-18T18:38:55.511Z,4.75
2022-09-18T18:41:24.438Z,4.55
2022-09-18T18:43:55.639Z,4.57
2022-09-18T18:46:24.619Z,3.55
2022-09-18T18:49:02.691Z,3.50
2022-09-18T18:51:36.158Z,2.58
2022-09-18T18:54:04.122Z,3.08
2022-09-18T18:56:34.094Z,2.92
2022-09-18T18:59:02.406Z,3.05
2022-09-18T19:01:30.453Z,2.90
2022-09-18T19:04:03.055Z,2.70
2022-09-18T19:06:29.894Z,2.97
2022-09-18T19:08:58.763Z,2.85
2022-09-18T19:11:26.625Z,2.88
2022-09-18T19:13:56.856Z,3.20
2022-09-18T19:16:25.672Z,3.10
2022-09-18T19:19:00.461Z,3.50
2022-09-18T19:21:28.613Z,3.58
2022-09-18T19:23:59.331Z,4.18
2022-09-18T19:26:28.361Z,3.78
2022-09-18T19:28:57.546Z,3.90
2022-09-18T19:31:25.608Z,3.58
2022-09-18T19:33:52.785Z,3.10
2022-09-18T19:36:21.009Z,3.40
2022-09-18T19:38:55.120Z,3.00
2022-09-18T19:41:33.952Z,3.30
2022-09-18T19:44:03.257Z,3.35
2022-09-18T19:46:32.570Z,2.95
2022-09-18T19:49:00.224Z,2.70
2022-09-18T19:51:28.498Z,2.80
2022-09-18T19:53:55.839Z,2.95
2022-09-18T19:56:42.167Z,3.05
2022-09-18T19:59:10.453Z,3.25
2022-09-18T20:01:37.157Z,3.10
2022-09-18T20:04:04.525Z,3.55
2022-09-18T20:06:32.912Z,2.88
2022-09-18T20:09:00.260Z,2.80
2022-09-18T20:11:27.044Z,2.90
2022-09-18T20:13:53.708Z,3.00
2022-09-18T20:16:21.305Z,2.83
2022-09-18T20:18:48.565Z,2.60
2022-09-18T20:21:17.510Z,3.00
2022-09-18T20:23:44.910Z,2.92
2022-09-18T20:26:17.974Z,2.70
2022-09-18T20:28:45.084Z,3.08
2022-09-18T20:31:14.227Z,3.28
2022-09-18T20:33:41.371Z,3.17
2022-09-18T20:36:11.414Z,3.13
2022-09-18T20:38:41.619Z,3.22
2022-09-18T20:41:16.747Z,3.28
2022-09-18T20:46:16.326Z,3.40
2022-09-18T20:48:57.551Z,3.20
2022-09-18T20:51:29.709Z,3.15
2022-09-18T20:53:58.003Z,2.78
2022-09-18T20:56:27.321Z,2.40
2022-09-18T20:58:54.646Z,2.78
2022-09-18T21:01:24.572Z,2.65
2022-09-18T21:03:56.796Z,2.92
2022-09-18T21:06:26.083Z,2.85
2022-09-18T21:08:55.009Z,3.00
2022-09-18T21:11:25.528Z,2.58
2022-09-18T21:13:57.289Z,2.78
2022-09-18T21:16:26.322Z,2.60
2022-09-18T21:18:56.695Z,2.38
2022-09-18T21:21:24.955Z,2.25
2022-09-18T21:23:54.325Z,2.47
2022-09-18T21:26:22.629Z,2.30
2022-09-18T21:29:13.568Z,2.63
2022-09-18T21:31:45.297Z,2.20
2022-09-18T21:34:24.364Z,2.25
2022-09-18T21:36:53.062Z,2.25
2022-09-18T21:39:19.682Z,2.22
2022-09-18T21:41:47.660Z,2.00
2022-09-18T21:44:17.346Z,1.95
2022-09-18T21:46:45.745Z,2.17
2022-09-18T21:49:15.051Z,2.25
2022-09-18T21:51:42.234Z,2.05
2022-09-18T21:54:15.559Z,1.85
2022-09-18T21:56:44.098Z,2.15
2022-09-18T21:59:11.947Z,2.17
2022-09-18T22:01:38.905Z,1.95
2022-09-18T22:04:07.363Z,2.00
2022-09-18T22:06:41.746Z,1.83
2022-09-18T22:09:19.210Z,2.15
2022-09-18T22:11:47.150Z,1.90
2022-09-18T22:14:22.856Z,1.73
2022-09-18T22:16:50.758Z,1.92
2022-09-18T22:19:17.820Z,1.45
2022-09-18T22:21:47.274Z,1.70
2022-09-18T22:24:20.211Z,1.50
2022-09-18T22:26:50.011Z,1.65
2022-09-18T22:29:26.061Z,1.25
2022-09-18T22:31:53.069Z,1.73
2022-09-18T22:34:23.370Z,1.83
2022-09-18T22:36:50.887Z,1.75
2022-09-18T22:39:20.650Z,1.77
2022-09-18T22:41:47.999Z,1.80
2022-09-18T22:44:15.737Z,2.00
2022-09-18T22:46:44.722Z,1.58
2022-09-18T22:49:18.702Z,1.67
2022-09-18T22:51:46.317Z,1.50
2022-09-18T22:54:15.177Z,1.35
2022-09-18T22:56:47.052Z,1.65
2022-09-18T22:59:16.337Z,2.13
2022-09-18T23:01:51.139Z,1.35
2022-09-18T23:04:19.929Z,1.02
2022-09-18T23:06:47.933Z,1.52
2022-09-18T23:09:16.008Z,1.27
2022-09-18T23:11:43.933Z,1.30
2022-09-18T23:14:18.463Z,1.55
2022-09-18T23:16:45.743Z,1.35
2022-09-18T23:19:17.918Z,1.50
2022-09-18T23:21:44.620Z,1.80
2022-09-18T23:24:12.413Z,1.40
2022-09-18T23:26:41.634Z,1.70
2022-09-18T23:29:10.912Z,1.58
2022-09-18T23:31:40.515Z,1.67
2022-09-18T23:34:11.523Z,1.30
2022-09-18T23:36:41.374Z,1.45
2022-09-18T23:39:13.714Z,1.67
2022-09-18T23:41:41.550Z,1.27
2022-09-18T23:44:12.738Z,1.50
2022-09-18T23:46:40.017Z,1.27
2022-09-18T23:49:08.842Z,1.20
2022-09-18T23:51:40.842Z,1.25
2022-09-18T23:54:12.615Z,1.30
2022-09-18T23:56:39.225Z,1.35
2022-09-18T23:59:07.089Z,1.40
